sensor_id;sensor_type;location;lat;lon;timestamp;pressure;altitude;pressure_sealevel;temperature;humidity
69570;BME280;56781;42.292;23.146;2023-04-28T00:02:18;95853.72;;;0.92;100.00
69570;BME280;56781;42.292;23.146;2023-04-28T00:04:45;95875.25;;;1.12;100.00
69570;BME280;56781;42.292;23.146;2023-04-28T00:07:13;95873.19;;;0.67;100.00
69570;BME280;56781;42.292;23.146;2023-04-28T00:09:40;95842.53;;;0.84;100.00
69570;BME280;56781;42.292;23.146;2023-04-28T00:12:07;95863.34;;;1.09;100.00
69570;BME280;56781;42.292;23.146;2023-04-28T00:14:35;95858.66;;;0.88;100.00
69570;BME280;56781;42.292;23.146;2023-04-28T00:17:02;95841.50;;;0.74;100.00
69570;BME280;56781;42.292;23.146;2023-04-28T00:19:29;95871.00;;;1.23;100.00
69570;BME280;56781;42.292;23.146;2023-04-28T00:21:56;95846.75;;;0.85;100.00
69570;BME280;56781;42.292;23.146;2023-04-28T00:24:23;95850.78;;;0.76;100.00
69570;BME280;56781;42.292;23.146;2023-04-28T00:26:51;95866.81;;;0.63;100.00
69570;BME280;56781;42.292;23.146;2023-04-28T00:29:18;95881.81;;;0.86;100.00
69570;BME280;56781;42.292;23.146;2023-04-28T00:31:45;95848.00;;;0.48;100.00
69570;BME280;56781;42.292;23.146;2023-04-28T00:34:12;95865.97;;;0.62;100.00
69570;BME280;56781;42.292;23.146;2023-04-28T00:36:41;95846.63;;;0.69;100.00
69570;BME280;56781;42.292;23.146;2023-04-28T00:39:08;95856.66;;;1.19;100.00
69570;BME280;56781;42.292;23.146;2023-04-28T00:41:35;95855.19;;;1.11;99.95
69570;BME280;56781;42.292;23.146;2023-04-28T00:44:03;95861.59;;;1.27;100.00
69570;BME280;56781;42.292;23.146;2023-04-28T00:46:30;95867.88;;;1.49;98.37
69570;BME280;56781;42.292;23.146;2023-04-28T00:48:59;95894.22;;;1.61;97.68
69570;BME280;56781;42.292;23.146;2023-04-28T00:51:26;95876.03;;;1.24;99.32
69570;BME280;56781;42.292;23.146;2023-04-28T00:53:55;95892.69;;;1.13;100.00
69570;BME280;56781;42.292;23.146;2023-04-28T00:56:23;95872.94;;;1.27;99.74
69570;BME280;56781;42.292;23.146;2023-04-28T00:58:50;95878.66;;;1.24;100.00
69570;BME280;56781;42.292;23.146;2023-04-28T01:01:17;95865.97;;;0.62;100.00
69570;BME280;56781;42.292;23.146;2023-04-28T01:03:45;95894.75;;;0.87;100.00
69570;BME280;56781;42.292;23.146;2023-04-28T01:06:13;95860.41;;;0.71;100.00
69570;BME280;56781;42.292;23.146;2023-04-28T01:08:42;95893.44;;;0.43;100.00
69570;BME280;56781;42.292;23.146;2023-04-28T01:11:13;95875.59;;;0.45;100.00
69570;BME280;56781;42.292;23.146;2023-04-28T01:13:40;95897.50;;;-0.15;100.00
69570;BME280;56781;42.292;23.146;2023-04-28T01:16:08;95910.91;;;0.14;100.00
69570;BME280;56781;42.292;23.146;2023-04-28T01:18:35;95868.22;;;0.24;100.00
69570;BME280;56781;42.292;23.146;2023-04-28T01:21:02;95889.31;;;-0.07;100.00
69570;BME280;56781;42.292;23.146;2023-04-28T01:23:30;95903.28;;;-0.25;100.00
69570;BME280;56781;42.292;23.146;2023-04-28T01:25:57;95882.78;;;-0.34;100.00
69570;BME280;56781;42.292;23.146;2023-04-28T01:28:24;95883.44;;;-0.39;100.00
69570;BME280;56781;42.292;23.146;2023-04-28T01:30:51;95889.81;;;-0.16;100.00
69570;BME280;56781;42.292;23.146;2023-04-28T01:33:19;95901.25;;;-0.23;100.00
69570;BME280;56781;42.292;23.146;2023-04-28T01:35:46;95892.78;;;-0.25;100.00
69570;BME280;56781;42.292;23.146;2023-04-28T01:38:13;95867.84;;;-0.22;100.00
69570;BME280;56781;42.292;23.146;2023-04-28T01:40:40;95884.47;;;-0.40;100.00
69570;BME280;56781;42.292;23.146;2023-04-28T01:43:07;95886.81;;;-0.50;100.00
69570;BME280;56781;42.292;23.146;2023-04-28T01:45:34;95884.03;;;-0.37;100.00
69570;BME280;56781;42.292;23.146;2023-04-28T01:48:02;95871.28;;;-0.88;100.00
69570;BME280;56781;42.292;23.146;2023-04-28T01:50:29;95889.16;;;-0.79;100.00
69570;BME280;56781;42.292;23.146;2023-04-28T01:52:56;95899.69;;;-0.60;100.00
69570;BME280;56781;42.292;23.146;2023-04-28T01:55:24;95885.53;;;-0.59;100.00
69570;BME280;56781;42.292;23.146;2023-04-28T01:57:51;95888.06;;;-0.53;100.00
69570;BME280;56781;42.292;23.146;2023-04-28T02:00:19;95893.16;;;-0.39;100.00
69570;BME280;56781;42.292;23.146;2023-04-28T02:02:46;95888.50;;;-0.74;100.00
69570;BME280;56781;42.292;23.146;2023-04-28T02:05:13;95901.41;;;-1.09;100.00
69570;BME280;56781;42.292;23.146;2023-04-28T02:07:41;95913.78;;;-0.73;100.00
69570;BME280;56781;42.292;23.146;2023-04-28T02:10:08;95869.53;;;-0.76;100.00
69570;BME280;56781;42.292;23.146;2023-04-28T02:12:36;95912.31;;;-0.69;100.00
69570;BME280;56781;42.292;23.146;2023-04-28T02:15:03;95892.63;;;-0.78;100.00
69570;BME280;56781;42.292;23.146;2023-04-28T02:17:30;95904.81;;;-0.84;100.00
69570;BME280;56781;42.292;23.146;2023-04-28T02:19:58;95918.22;;;-0.74;100.00
69570;BME280;56781;42.292;23.146;2023-04-28T02:22:25;95927.22;;;-0.63;100.00
69570;BME280;56781;42.292;23.146;2023-04-28T02:24:55;95880.63;;;-0.93;100.00
69570;BME280;56781;42.292;23.146;2023-04-28T02:27:23;95932.94;;;-1.09;100.00
69570;BME280;56781;42.292;23.146;2023-04-28T02:29:50;95904.19;;;-1.04;100.00
69570;BME280;56781;42.292;23.146;2023-04-28T02:32:18;95929.41;;;-0.78;100.00
69570;BME280;56781;42.292;23.146;2023-04-28T02:34:45;95908.56;;;-0.98;100.00
69570;BME280;56781;42.292;23.146;2023-04-28T02:37:12;95944.44;;;-0.85;100.00
69570;BME280;56781;42.292;23.146;2023-04-28T02:39:39;95925.97;;;-1.22;100.00
69570;BME280;56781;42.292;23.146;2023-04-28T02:42:07;95929.34;;;-1.65;100.00
69570;BME280;56781;42.292;23.146;2023-04-28T02:44:34;95914.34;;;-1.58;100.00
69570;BME280;56781;42.292;23.146;2023-04-28T02:47:01;95934.97;;;-1.62;100.00
69570;BME280;56781;42.292;23.146;2023-04-28T02:49:28;95919.31;;;-1.75;100.00
69570;BME280;56781;42.292;23.146;2023-04-28T02:51:56;95926.38;;;-1.75;100.00
69570;BME280;56781;42.292;23.146;2023-04-28T02:54:23;95924.50;;;-1.68;100.00
69570;BME280;56781;42.292;23.146;2023-04-28T02:56:54;95917.13;;;-1.53;100.00
69570;BME280;56781;42.292;23.146;2023-04-28T02:59:22;95924.78;;;-1.26;100.00
69570;BME280;56781;42.292;23.146;2023-04-28T03:01:50;95946.28;;;-1.11;100.00
69570;BME280;56781;42.292;23.146;2023-04-28T03:04:17;95953.84;;;-1.21;100.00
69570;BME280;56781;42.292;23.146;2023-04-28T03:06:45;95944.84;;;-1.32;100.00
69570;BME280;56781;42.292;23.146;2023-04-28T03:09:13;95964.13;;;-1.20;100.00
69570;BME280;56781;42.292;23.146;2023-04-28T03:11:40;95971.53;;;-1.10;100.00
69570;BME280;56781;42.292;23.146;2023-04-28T03:14:08;95964.94;;;-1.19;100.00
69570;BME280;56781;42.292;23.146;2023-04-28T03:16:35;95957.09;;;-1.26;100.00
69570;BME280;56781;42.292;23.146;2023-04-28T03:19:03;95955.72;;;-1.28;100.00
69570;BME280;56781;42.292;23.146;2023-04-28T03:21:30;95964.09;;;-1.13;100.00
69570;BME280;56781;42.292;23.146;2023-04-28T03:23:58;95961.66;;;-1.15;100.00
69570;BME280;56781;42.292;23.146;2023-04-28T03:26:25;95960.06;;;-1.16;100.00
69570;BME280;56781;42.292;23.146;2023-04-28T03:28:52;95964.53;;;-1.16;100.00
69570;BME280;56781;42.292;23.146;2023-04-28T03:31:19;95967.41;;;-1.24;100.00
69570;BME280;56781;42.292;23.146;2023-04-28T03:33:46;95966.53;;;-1.18;100.00
69570;BME280;56781;42.292;23.146;2023-04-28T03:36:14;95970.56;;;-1.72;100.00
69570;BME280;56781;42.292;23.146;2023-04-28T03:38:41;95968.19;;;-1.81;100.00
69570;BME280;56781;42.292;23.146;2023-04-28T03:41:08;95965.38;;;-1.86;100.00
69570;BME280;56781;42.292;23.146;2023-04-28T03:43:36;95975.38;;;-1.69;100.00
69570;BME280;56781;42.292;23.146;2023-04-28T03:46:03;96004.09;;;-1.43;100.00
69570;BME280;56781;42.292;23.146;2023-04-28T03:48:31;96000.53;;;-1.23;100.00
69570;BME280;56781;42.292;23.146;2023-04-28T03:50:58;95994.56;;;-1.37;100.00
69570;BME280;56781;42.292;23.146;2023-04-28T03:53:25;96008.22;;;-1.28;100.00
69570;BME280;56781;42.292;23.146;2023-04-28T03:55:52;95982.59;;;-1.33;100.00
69570;BME280;56781;42.292;23.146;2023-04-28T03:58:20;96013.16;;;-1.39;100.00
69570;BME280;56781;42.292;23.146;2023-04-28T04:00:47;96009.44;;;-1.56;100.00
69570;BME280;56781;42.292;23.146;2023-04-28T04:03:17;96029.50;;;-1.05;100.00
69570;BME280;56781;42.292;23.146;2023-04-28T04:06:02;96000.31;;;-1.22;100.00
69570;BME280;56781;42.292;23.146;2023-04-28T04:08:51;96014.34;;;-0.84;100.00
69570;BME280;56781;42.292;23.146;2023-04-28T04:11:39;96035.69;;;-0.74;100.00
69570;BME280;56781;42.292;23.146;2023-04-28T04:14:24;96007.59;;;-0.99;100.00
69570;BME280;56781;42.292;23.146;2023-04-28T04:16:57;95979.34;;;-1.03;100.00
69570;BME280;56781;42.292;23.146;2023-04-28T04:19:24;96022.19;;;-0.78;100.00
69570;BME280;56781;42.292;23.146;2023-04-28T04:21:52;96021.28;;;-0.90;100.00
69570;BME280;56781;42.292;23.146;2023-04-28T04:24:19;96016.31;;;-0.55;100.00
69570;BME280;56781;42.292;23.146;2023-04-28T04:26:46;96007.69;;;-0.43;100.00
69570;BME280;56781;42.292;23.146;2023-04-28T04:29:17;96034.97;;;-0.38;100.00
69570;BME280;56781;42.292;23.146;2023-04-28T04:32:04;96017.88;;;-0.29;100.00
69570;BME280;56781;42.292;23.146;2023-04-28T04:34:34;96042.44;;;0.02;100.00
69570;BME280;56781;42.292;23.146;2023-04-28T04:37:01;96026.00;;;-0.12;100.00
69570;BME280;56781;42.292;23.146;2023-04-28T04:39:28;96038.06;;;0.44;100.00
69570;BME280;56781;42.292;23.146;2023-04-28T04:41:55;96044.28;;;0.50;100.00
69570;BME280;56781;42.292;23.146;2023-04-28T04:44:26;96043.63;;;0.97;100.00
69570;BME280;56781;42.292;23.146;2023-04-28T04:46:57;96061.56;;;1.53;100.00
69570;BME280;56781;42.292;23.146;2023-04-28T04:49:24;96038.28;;;1.62;97.57
69570;BME280;56781;42.292;23.146;2023-04-28T04:51:51;96031.91;;;2.10;96.71
69570;BME280;56781;42.292;23.146;2023-04-28T04:54:18;96038.50;;;2.36;95.86
69570;BME280;56781;42.292;23.146;2023-04-28T04:56:46;96048.19;;;2.59;93.80
69570;BME280;56781;42.292;23.146;2023-04-28T04:59:13;96026.38;;;2.52;93.99
69570;BME280;56781;42.292;23.146;2023-04-28T05:01:40;96049.59;;;3.24;91.05
69570;BME280;56781;42.292;23.146;2023-04-28T05:04:08;96045.88;;;3.25;88.63
69570;BME280;56781;42.292;23.146;2023-04-28T05:06:35;96050.16;;;3.99;86.57
69570;BME280;56781;42.292;23.146;2023-04-28T05:09:02;96035.94;;;4.27;83.83
69570;BME280;56781;42.292;23.146;2023-04-28T05:11:30;96059.81;;;4.76;82.85
69570;BME280;56781;42.292;23.146;2023-04-28T05:13:57;96033.78;;;6.07;78.72
69570;BME280;56781;42.292;23.146;2023-04-28T05:16:24;96023.16;;;7.83;71.29
69570;BME280;56781;42.292;23.146;2023-04-28T05:18:52;96013.63;;;8.52;65.54
69570;BME280;56781;42.292;23.146;2023-04-28T05:21:19;96003.34;;;10.06;61.22
69570;BME280;56781;42.292;23.146;2023-04-28T05:23:46;96038.28;;;10.87;57.51
69570;BME280;56781;42.292;23.146;2023-04-28T05:26:17;96029.44;;;10.68;58.14
69570;BME280;56781;42.292;23.146;2023-04-28T05:28:44;96004.56;;;11.57;54.26
69570;BME280;56781;42.292;23.146;2023-04-28T05:31:12;96011.94;;;11.97;54.53
69570;BME280;56781;42.292;23.146;2023-04-28T05:33:39;96007.25;;;12.45;51.19
69570;BME280;56781;42.292;23.146;2023-04-28T05:36:09;96018.84;;;14.96;46.14
69570;BME280;56781;42.292;23.146;2023-04-28T05:38:37;96018.59;;;14.27;45.07
69570;BME280;56781;42.292;23.146;2023-04-28T05:41:06;95994.75;;;15.26;44.61
69570;BME280;56781;42.292;23.146;2023-04-28T05:43:34;95998.19;;;14.34;45.08
69570;BME280;56781;42.292;23.146;2023-04-28T05:46:01;96015.09;;;17.33;38.63
69570;BME280;56781;42.292;23.146;2023-04-28T05:48:31;96001.19;;;18.95;34.40
69570;BME280;56781;42.292;23.146;2023-04-28T05:50:58;96009.69;;;17.33;38.48
69570;BME280;56781;42.292;23.146;2023-04-28T05:53:26;96002.53;;;19.14;33.24
69570;BME280;56781;42.292;23.146;2023-04-28T05:55:53;96023.66;;;19.20;32.79
69570;BME280;56781;42.292;23.146;2023-04-28T05:58:20;96019.50;;;18.49;32.76
69570;BME280;56781;42.292;23.146;2023-04-28T06:00:47;96009.38;;;16.54;35.68
69570;BME280;56781;42.292;23.146;2023-04-28T06:03:15;95990.69;;;16.70;37.28
69570;BME280;56781;42.292;23.146;2023-04-28T06:05:44;95992.09;;;17.39;32.12
69570;BME280;56781;42.292;23.146;2023-04-28T06:08:12;95991.03;;;18.80;30.15
69570;BME280;56781;42.292;23.146;2023-04-28T06:10:39;96005.28;;;20.30;28.42
69570;BME280;56781;42.292;23.146;2023-04-28T06:13:07;96003.63;;;19.13;28.55
69570;BME280;56781;42.292;23.146;2023-04-28T06:15:34;95995.09;;;18.49;30.30
69570;BME280;56781;42.292;23.146;2023-04-28T06:18:02;95981.91;;;19.25;30.49
69570;BME280;56781;42.292;23.146;2023-04-28T06:20:31;95974.66;;;20.49;27.49
69570;BME280;56781;42.292;23.146;2023-04-28T06:22:58;95961.78;;;20.30;29.36
69570;BME280;56781;42.292;23.146;2023-04-28T06:25:26;95991.56;;;19.95;29.03
69570;BME280;56781;42.292;23.146;2023-04-28T06:27:53;95951.50;;;18.30;29.68
69570;BME280;56781;42.292;23.146;2023-04-28T06:30:21;95968.22;;;17.41;30.40
69570;BME280;56781;42.292;23.146;2023-04-28T06:32:49;95981.19;;;18.26;30.59
69570;BME280;56781;42.292;23.146;2023-04-28T06:35:16;95994.50;;;17.40;32.27
69570;BME280;56781;42.292;23.146;2023-04-28T06:37:43;95990.22;;;16.97;31.15
69570;BME280;56781;42.292;23.146;2023-04-28T06:40:11;95984.75;;;17.60;30.64
69570;BME280;56781;42.292;23.146;2023-04-28T06:42:38;95991.72;;;16.18;35.74
69570;BME280;56781;42.292;23.146;2023-04-28T06:45:05;95971.72;;;15.02;34.75
69570;BME280;56781;42.292;23.146;2023-04-28T06:47:33;95967.03;;;16.88;32.05
69570;BME280;56781;42.292;23.146;2023-04-28T06:50:00;95995.09;;;16.83;31.86
69570;BME280;56781;42.292;23.146;2023-04-28T06:52:28;95980.63;;;15.20;34.80
69570;BME280;56781;42.292;23.146;2023-04-28T06:55:08;95983.63;;;15.01;35.06
69570;BME280;56781;42.292;23.146;2023-04-28T06:57:35;95971.41;;;14.78;37.99
69570;BME280;56781;42.292;23.146;2023-04-28T07:00:04;95972.84;;;15.01;38.80
69570;BME280;56781;42.292;23.146;2023-04-28T07:02:32;95998.09;;;14.48;37.37
69570;BME280;56781;42.292;23.146;2023-04-28T07:04:59;95972.03;;;14.66;37.35
69570;BME280;56781;42.292;23.146;2023-04-28T07:07:26;95991.78;;;14.13;42.12
69570;BME280;56781;42.292;23.146;2023-04-28T07:09:53;95978.38;;;13.59;37.65
69570;BME280;56781;42.292;23.146;2023-04-28T07:12:21;95965.88;;;12.96;40.04
69570;BME280;56781;42.292;23.146;2023-04-28T07:14:49;95965.72;;;13.91;37.45
69570;BME280;56781;42.292;23.146;2023-04-28T07:17:16;95992.81;;;13.41;41.20
69570;BME280;56781;42.292;23.146;2023-04-28T07:19:43;95965.75;;;14.48;38.11
69570;BME280;56781;42.292;23.146;2023-04-28T07:22:11;95963.00;;;14.97;36.04
69570;BME280;56781;42.292;23.146;2023-04-28T07:24:38;95989.50;;;15.12;36.34
69570;BME280;56781;42.292;23.146;2023-04-28T07:27:05;95989.31;;;15.78;34.30
69570;BME280;56781;42.292;23.146;2023-04-28T07:29:32;95951.09;;;17.49;31.19
69570;BME280;56781;42.292;23.146;2023-04-28T07:32:02;95988.84;;;15.41;36.91
69570;BME280;56781;42.292;23.146;2023-04-28T07:34:35;95968.41;;;15.23;37.15
69570;BME280;56781;42.292;23.146;2023-04-28T07:37:02;95963.59;;;16.19;34.39
69570;BME280;56781;42.292;23.146;2023-04-28T07:39:30;95967.50;;;16.90;34.34
69570;BME280;56781;42.292;23.146;2023-04-28T07:41:59;95960.44;;;15.52;34.94
69570;BME280;56781;42.292;23.146;2023-04-28T07:44:27;95967.56;;;15.48;36.81
69570;BME280;56781;42.292;23.146;2023-04-28T07:46:54;95996.22;;;14.57;35.48
69570;BME280;56781;42.292;23.146;2023-04-28T07:49:21;95970.31;;;14.96;34.79
69570;BME280;56781;42.292;23.146;2023-04-28T07:51:48;95975.84;;;16.46;33.84
69570;BME280;56781;42.292;23.146;2023-04-28T07:54:17;95976.25;;;17.49;32.10
69570;BME280;56781;42.292;23.146;2023-04-28T07:56:45;95949.78;;;16.71;32.58
69570;BME280;56781;42.292;23.146;2023-04-28T07:59:13;95960.13;;;16.78;31.13
69570;BME280;56781;42.292;23.146;2023-04-28T08:01:40;95968.03;;;17.58;31.12
69570;BME280;56781;42.292;23.146;2023-04-28T08:04:08;95955.31;;;16.83;34.22
69570;BME280;56781;42.292;23.146;2023-04-28T08:06:37;95963.00;;;15.23;37.03
69570;BME280;56781;42.292;23.146;2023-04-28T08:09:05;95955.22;;;15.47;33.29
69570;BME280;56781;42.292;23.146;2023-04-28T08:11:33;95944.13;;;16.34;31.39
69570;BME280;56781;42.292;23.146;2023-04-28T08:14:00;95940.56;;;15.57;31.94
69570;BME280;56781;42.292;23.146;2023-04-28T08:16:29;95937.69;;;16.18;37.68
69570;BME280;56781;42.292;23.146;2023-04-28T08:18:57;95940.06;;;16.79;39.54
69570;BME280;56781;42.292;23.146;2023-04-28T08:21:25;95957.69;;;18.06;33.06
69570;BME280;56781;42.292;23.146;2023-04-28T08:23:52;95949.44;;;17.69;36.08
69570;BME280;56781;42.292;23.146;2023-04-28T08:26:20;95947.03;;;17.43;34.08
69570;BME280;56781;42.292;23.146;2023-04-28T08:28:47;95946.88;;;17.39;34.14
69570;BME280;56781;42.292;23.146;2023-04-28T08:31:14;95940.59;;;15.48;35.74
69570;BME280;56781;42.292;23.146;2023-04-28T08:33:42;95954.22;;;15.52;34.08
69570;BME280;56781;42.292;23.146;2023-04-28T08:36:14;95944.16;;;15.87;32.56
69570;BME280;56781;42.292;23.146;2023-04-28T08:38:42;95935.44;;;16.20;35.36
69570;BME280;56781;42.292;23.146;2023-04-28T08:41:11;95939.94;;;15.51;35.96
69570;BME280;56781;42.292;23.146;2023-04-28T08:43:39;95924.81;;;15.68;35.06
69570;BME280;56781;42.292;23.146;2023-04-28T08:46:09;95940.25;;;15.59;36.69
69570;BME280;56781;42.292;23.146;2023-04-28T08:48:41;95951.81;;;15.85;38.00
69570;BME280;56781;42.292;23.146;2023-04-28T08:51:15;95927.78;;;15.11;34.12
69570;BME280;56781;42.292;23.146;2023-04-28T08:53:44;95941.97;;;16.49;35.69
69570;BME280;56781;42.292;23.146;2023-04-28T08:56:37;95913.84;;;16.20;36.62
69570;BME280;56781;42.292;23.146;2023-04-28T08:59:04;95906.50;;;15.35;36.51
69570;BME280;56781;42.292;23.146;2023-04-28T09:01:32;95935.91;;;14.93;38.56
69570;BME280;56781;42.292;23.146;2023-04-28T09:04:02;95920.47;;;15.20;38.29
69570;BME280;56781;42.292;23.146;2023-04-28T09:06:36;95934.44;;;14.87;38.14
69570;BME280;56781;42.292;23.146;2023-04-28T09:09:24;95933.97;;;15.11;33.43
69570;BME280;56781;42.292;23.146;2023-04-28T09:11:52;95929.13;;;15.60;30.96
69570;BME280;56781;42.292;23.146;2023-04-28T09:14:20;95910.00;;;15.91;34.12
69570;BME280;56781;42.292;23.146;2023-04-28T09:16:48;95907.16;;;16.77;34.60
69570;BME280;56781;42.292;23.146;2023-04-28T09:19:16;95900.84;;;16.43;36.46
69570;BME280;56781;42.292;23.146;2023-04-28T09:21:56;95934.66;;;15.81;35.28
69570;BME280;56781;42.292;23.146;2023-04-28T09:26:59;95916.44;;;15.52;35.52
69570;BME280;56781;42.292;23.146;2023-04-28T09:29:30;95916.81;;;15.98;35.45
69570;BME280;56781;42.292;23.146;2023-04-28T09:32:23;95899.13;;;16.09;32.33
69570;BME280;56781;42.292;23.146;2023-04-28T09:34:53;95907.31;;;15.27;37.99
69570;BME280;56781;42.292;23.146;2023-04-28T09:37:26;95893.53;;;15.11;38.13
69570;BME280;56781;42.292;23.146;2023-04-28T09:40:02;95892.13;;;14.53;37.38
69570;BME280;56781;42.292;23.146;2023-04-28T09:45:01;95896.28;;;14.19;38.72
69570;BME280;56781;42.292;23.146;2023-04-28T09:47:29;95885.56;;;14.45;39.10
69570;BME280;56781;42.292;23.146;2023-04-28T09:50:03;95892.97;;;15.52;43.21
69570;BME280;56781;42.292;23.146;2023-04-28T09:52:32;95889.03;;;15.41;36.75
69570;BME280;56781;42.292;23.146;2023-04-28T09:55:05;95871.91;;;15.37;38.91
69570;BME280;56781;42.292;23.146;2023-04-28T09:57:35;95861.59;;;14.09;38.03
69570;BME280;56781;42.292;23.146;2023-04-28T10:00:04;95872.41;;;14.44;41.43
69570;BME280;56781;42.292;23.146;2023-04-28T10:02:36;95880.22;;;15.15;38.28
69570;BME280;56781;42.292;23.146;2023-04-28T10:05:07;95854.22;;;15.01;34.37
69570;BME280;56781;42.292;23.146;2023-04-28T10:07:39;95863.97;;;15.32;35.99
69570;BME280;56781;42.292;23.146;2023-04-28T10:10:07;95856.09;;;15.65;32.89
69570;BME280;56781;42.292;23.146;2023-04-28T10:12:34;95863.28;;;14.88;35.88
69570;BME280;56781;42.292;23.146;2023-04-28T10:15:06;95858.59;;;14.19;39.32
69570;BME280;56781;42.292;23.146;2023-04-28T10:17:33;95842.63;;;14.23;35.14
69570;BME280;56781;42.292;23.146;2023-04-28T10:20:02;95847.06;;;14.36;37.32
69570;BME280;56781;42.292;23.146;2023-04-28T10:25:31;95848.91;;;15.31;35.08
69570;BME280;56781;42.292;23.146;2023-04-28T10:28:03;95862.41;;;15.31;33.78
69570;BME280;56781;42.292;23.146;2023-04-28T10:30:30;95818.84;;;14.94;36.44
69570;BME280;56781;42.292;23.146;2023-04-28T10:35:41;95847.91;;;14.80;36.80
69570;BME280;56781;42.292;23.146;2023-04-28T10:38:13;95833.44;;;14.32;37.83
69570;BME280;56781;42.292;23.146;2023-04-28T10:40:48;95817.41;;;15.05;37.61
69570;BME280;56781;42.292;23.146;2023-04-28T10:56:17;95802.00;;;15.06;33.75
69570;BME280;56781;42.292;23.146;2023-04-28T10:58:46;95804.34;;;15.25;34.78
69570;BME280;56781;42.292;23.146;2023-04-28T11:03:50;95795.81;;;15.05;31.98
69570;BME280;56781;42.292;23.146;2023-04-28T11:06:25;95793.75;;;15.49;32.76
69570;BME280;56781;42.292;23.146;2023-04-28T11:08:55;95811.63;;;16.01;35.77
69570;BME280;56781;42.292;23.146;2023-04-28T11:11:32;95777.53;;;16.17;33.49
69570;BME280;56781;42.292;23.146;2023-04-28T11:19:35;95770.53;;;14.72;39.47
69570;BME280;56781;42.292;23.146;2023-04-28T11:22:05;95782.56;;;14.66;34.41
69570;BME280;56781;42.292;23.146;2023-04-28T11:24:37;95769.03;;;15.00;33.42
69570;BME280;56781;42.292;23.146;2023-04-28T11:27:04;95768.47;;;15.71;32.53
69570;BME280;56781;42.292;23.146;2023-04-28T11:29:36;95781.09;;;15.41;34.09
69570;BME280;56781;42.292;23.146;2023-04-28T11:32:05;95769.47;;;15.58;31.24
69570;BME280;56781;42.292;23.146;2023-04-28T11:34:33;95777.13;;;16.28;32.66
69570;BME280;56781;42.292;23.146;2023-04-28T11:37:01;95752.16;;;15.89;32.16
69570;BME280;56781;42.292;23.146;2023-04-28T11:39:30;95727.06;;;15.88;33.16
69570;BME280;56781;42.292;23.146;2023-04-28T11:42:00;95743.25;;;16.30;33.11
69570;BME280;56781;42.292;23.146;2023-04-28T11:44:29;95764.16;;;16.75;36.23
69570;BME280;56781;42.292;23.146;2023-04-28T11:47:01;95743.25;;;15.29;32.27
69570;BME280;56781;42.292;23.146;2023-04-28T11:49:32;95741.47;;;15.63;33.96
69570;BME280;56781;42.292;23.146;2023-04-28T11:52:08;95749.97;;;16.03;28.15
69570;BME280;56781;42.292;23.146;2023-04-28T11:54:36;95713.81;;;15.95;29.35
69570;BME280;56781;42.292;23.146;2023-04-28T11:57:04;95743.16;;;16.60;30.22
69570;BME280;56781;42.292;23.146;2023-04-28T11:59:35;95718.44;;;16.37;27.58
69570;BME280;56781;42.292;23.146;2023-04-28T12:02:06;95737.53;;;16.11;28.19
69570;BME280;56781;42.292;23.146;2023-04-28T12:04:38;95745.63;;;15.90;30.88
69570;BME280;56781;42.292;23.146;2023-04-28T12:07:08;95733.38;;;15.92;29.51
69570;BME280;56781;42.292;23.146;2023-04-28T12:09:38;95710.22;;;15.62;31.59
69570;BME280;56781;42.292;23.146;2023-04-28T12:12:08;95701.66;;;15.60;28.73
69570;BME280;56781;42.292;23.146;2023-04-28T12:14:58;95716.59;;;15.57;32.37
69570;BME280;56781;42.292;23.146;2023-04-28T12:17:35;95697.69;;;15.57;33.59
69570;BME280;56781;42.292;23.146;2023-04-28T12:20:07;95706.75;;;15.82;30.12
69570;BME280;56781;42.292;23.146;2023-04-28T12:22:45;95700.09;;;16.43;34.01
69570;BME280;56781;42.292;23.146;2023-04-28T12:25:16;95707.31;;;16.51;33.88
69570;BME280;56781;42.292;23.146;2023-04-28T12:28:04;95714.38;;;16.10;29.37
69570;BME280;56781;42.292;23.146;2023-04-28T12:30:33;95660.34;;;16.10;31.09
69570;BME280;56781;42.292;23.146;2023-04-28T12:33:01;95684.50;;;16.27;32.84
69570;BME280;56781;42.292;23.146;2023-04-28T12:35:30;95678.03;;;16.53;32.98
69570;BME280;56781;42.292;23.146;2023-04-28T12:37:57;95701.25;;;16.54;30.53
69570;BME280;56781;42.292;23.146;2023-04-28T12:40:24;95680.16;;;16.14;32.11
69570;BME280;56781;42.292;23.146;2023-04-28T12:42:52;95670.81;;;16.45;30.69
69570;BME280;56781;42.292;23.146;2023-04-28T12:45:19;95678.88;;;16.32;29.29
69570;BME280;56781;42.292;23.146;2023-04-28T12:47:46;95665.78;;;16.55;30.47
69570;BME280;56781;42.292;23.146;2023-04-28T12:50:14;95672.88;;;16.60;30.18
69570;BME280;56781;42.292;23.146;2023-04-28T12:52:41;95678.72;;;16.50;34.92
69570;BME280;56781;42.292;23.146;2023-04-28T12:55:08;95686.81;;;16.50;32.05
69570;BME280;56781;42.292;23.146;2023-04-28T12:57:35;95669.53;;;16.75;33.20
69570;BME280;56781;42.292;23.146;2023-04-28T13:00:06;95682.28;;;16.08;32.01
69570;BME280;56781;42.292;23.146;2023-04-28T13:02:34;95662.41;;;16.25;33.07
69570;BME280;56781;42.292;23.146;2023-04-28T13:05:01;95666.78;;;16.17;32.15
69570;BME280;56781;42.292;23.146;2023-04-28T13:07:29;95653.44;;;16.33;29.14
69570;BME280;56781;42.292;23.146;2023-04-28T13:09:56;95649.28;;;16.03;28.74
69570;BME280;56781;42.292;23.146;2023-04-28T13:12:24;95635.91;;;16.39;28.73
69570;BME280;56781;42.292;23.146;2023-04-28T13:14:51;95662.09;;;16.72;28.94
69570;BME280;56781;42.292;23.146;2023-04-28T13:17:18;95656.06;;;17.12;28.49
69570;BME280;56781;42.292;23.146;2023-04-28T13:19:45;95638.94;;;17.33;32.23
69570;BME280;56781;42.292;23.146;2023-04-28T13:22:13;95671.94;;;17.50;30.08
69570;BME280;56781;42.292;23.146;2023-04-28T13:24:41;95622.38;;;16.97;28.63
69570;BME280;56781;42.292;23.146;2023-04-28T13:27:09;95657.19;;;17.23;31.38
69570;BME280;56781;42.292;23.146;2023-04-28T13:29:36;95648.50;;;16.93;33.13